Time;durP1;ratioP1;P1;durP2;ratioP2;P2;SDS_P1;SDS_P2;PMS_P1;PMS_P2;Temp;Humidity;BMP_temperature;BMP_pressure;BME280_temperature;BME280_humidity;BME280_pressure;Samples;Min_cycle;Max_cycle;Signal;HPM_P1;HPM_P2
2023/03/22 00:00:28;;;;;;;9.98;3.70;;;;;;;11.34;100.00;100882.25;5115267;28;20411;-66
2023/03/22 00:02:56;;;;;;;9.40;3.60;;;;;;;11.33;100.00;100872.47;5114915;27;20498;-65
2023/03/22 00:05:24;;;;;;;7.50;3.53;;;;;;;11.33;100.00;100872.47;5115317;28;20422;-65
2023/03/22 00:07:56;;;;;;;7.88;3.60;;;;;;;11.32;100.00;100870.81;5115046;28;20544;-65
2023/03/22 00:10:26;;;;;;;8.57;3.70;;;;;;;11.30;100.00;100870.25;5115213;28;20101;-65
2023/03/22 00:12:54;;;;;;;11.85;3.95;;;;;;;11.30;100.00;100859.34;5096616;27;20447;-65
2023/03/22 00:15:22;;;;;;;8.93;3.40;;;;;;;11.29;100.00;100869.44;5114168;28;20048;-67
2023/03/22 00:17:50;;;;;;;7.22;3.17;;;;;;;11.29;100.00;100863.16;5103530;28;20044;-65
2023/03/22 00:20:19;;;;;;;7.78;3.30;;;;;;;11.28;100.00;100861.50;5094436;28;20169;-66
2023/03/22 00:22:47;;;;;;;7.85;3.50;;;;;;;11.27;100.00;100854.44;5094534;28;20044;-66
2023/03/22 00:25:15;;;;;;;6.75;3.20;;;;;;;11.25;100.00;100845.69;5110053;27;20472;-65
2023/03/22 00:27:43;;;;;;;8.85;3.85;;;;;;;11.24;100.00;100849.53;5113580;28;20487;-65
2023/03/22 00:30:11;;;;;;;9.38;3.63;;;;;;;11.23;100.00;100845.16;5114896;28;20484;-65
2023/03/22 00:32:41;;;;;;;7.95;3.78;;;;;;;11.21;100.00;100840.00;5113680;28;20089;-66
2023/03/22 00:35:09;;;;;;;8.77;3.50;;;;;;;11.19;100.00;100846.81;5113706;27;20057;-66
2023/03/22 00:37:37;;;;;;;7.85;3.65;;;;;;;11.18;100.00;100828.78;5113365;28;20043;-65
2023/03/22 00:40:08;;;;;;;8.45;3.47;;;;;;;11.15;100.00;100826.59;5097224;28;20048;-68
2023/03/22 00:42:40;;;;;;;8.32;3.30;;;;;;;11.14;100.00;100823.06;5079523;28;20054;-65
2023/03/22 00:45:09;;;;;;;9.93;3.70;;;;;;;11.14;100.00;100830.44;5108540;27;20044;-65
2023/03/22 00:47:37;;;;;;;7.60;3.70;;;;;;;11.13;100.00;100820.59;5101435;28;20112;-66
2023/03/22 00:50:06;;;;;;;9.85;3.67;;;;;;;11.08;100.00;100814.06;5113538;28;20044;-65
2023/03/22 00:52:34;;;;;;;9.25;3.70;;;;;;;11.02;100.00;100804.25;5107959;28;20515;-65
2023/03/22 00:55:02;;;;;;;7.80;3.60;;;;;;;11.00;100.00;100811.88;5092827;28;20503;-65
2023/03/22 00:57:29;;;;;;;8.57;3.30;;;;;;;11.00;100.00;100809.16;5092927;28;20106;-66
2023/03/22 00:59:57;;;;;;;7.72;3.22;;;;;;;11.01;100.00;100802.59;5075679;28;20071;-66
2023/03/22 01:02:28;;;;;;;7.78;3.90;;;;;;;11.02;100.00;100804.25;5093422;28;20407;-66
2023/03/22 01:04:56;;;;;;;9.63;4.03;;;;;;;11.03;100.00;100800.41;5113310;28;20048;-66
2023/03/22 01:07:25;;;;;;;8.02;3.67;;;;;;;11.05;100.00;100805.59;5095398;28;20386;-66
2023/03/22 01:09:54;;;;;;;8.55;3.92;;;;;;;11.01;100.00;100793.59;5096255;28;20540;-67
2023/03/22 01:12:21;;;;;;;11.82;3.25;;;;;;;10.95;100.00;100792.78;5106682;28;20046;-65
2023/03/22 01:14:49;;;;;;;8.07;4.00;;;;;;;10.91;100.00;100796.31;5108478;28;20478;-65
2023/03/22 01:17:17;;;;;;;8.10;3.45;;;;;;;10.91;100.00;100785.41;5098723;28;20036;-65
2023/03/22 01:19:44;;;;;;;9.80;4.00;;;;;;;10.94;100.00;100788.41;5113005;28;20492;-66
2023/03/22 01:22:12;;;;;;;12.05;4.25;;;;;;;10.89;100.00;100777.50;5098144;28;20051;-65
2023/03/22 01:24:40;;;;;;;10.43;4.03;;;;;;;10.85;100.00;100770.97;5075914;28;20220;-65
2023/03/22 01:27:08;;;;;;;11.05;4.60;;;;;;;10.85;100.00;100766.34;5075600;28;20048;-65
2023/03/22 01:29:36;;;;;;;8.85;3.83;;;;;;;10.85;100.00;100762.81;5092501;28;20052;-66
2023/03/22 01:32:04;;;;;;;11.75;4.20;;;;;;;10.86;100.00;100746.16;5094873;28;20131;-65
2023/03/22 01:34:32;;;;;;;10.60;4.28;;;;;;;10.87;100.00;100746.97;5106414;28;20047;-66
2023/03/22 01:37:01;;;;;;;10.32;4.22;;;;;;;10.82;100.00;100736.06;5112431;28;20047;-65
2023/03/22 01:39:30;;;;;;;10.20;4.72;;;;;;;10.82;100.00;100730.63;5112816;28;20044;-66
2023/03/22 01:42:04;;;;;;;8.13;4.07;;;;;;;10.82;100.00;100727.88;5111307;28;20036;-64
2023/03/22 01:44:32;;;;;;;10.18;4.43;;;;;;;10.82;100.00;100722.44;5092169;28;20430;-65
2023/03/22 01:47:02;;;;;;;13.45;5.60;;;;;;;10.83;100.00;100715.91;5091726;28;20510;-64
2023/03/22 01:49:32;;;;;;;12.00;4.50;;;;;;;10.85;100.00;100713.75;5075510;28;20077;-66
2023/03/22 01:52:05;;;;;;;11.35;4.93;;;;;;;10.87;100.00;100703.34;5093288;28;20066;-65
2023/03/22 01:54:59;;;;;;;9.25;4.93;;;;;;;10.86;100.00;100694.38;5093237;28;20044;-65
2023/03/22 01:57:37;;;;;;;11.15;5.40;;;;;;;10.89;100.00;100693.00;5095818;28;20051;-65
2023/03/22 02:00:14;;;;;;;10.45;5.22;;;;;;;10.88;100.00;100678.56;5079969;28;20074;-64
2023/03/22 02:03:00;;;;;;;12.05;5.65;;;;;;;10.91;100.00;100681.84;5084062;28;20050;-66
2023/03/22 02:05:47;;;;;;;10.93;5.30;;;;;;;10.86;100.00;100672.56;5116692;28;20032;-65
2023/03/22 02:08:16;;;;;;;9.18;5.15;;;;;;;10.87;100.00;100674.22;5114211;28;20069;-64
2023/03/22 02:10:58;;;;;;;10.43;5.00;;;;;;;10.87;100.00;100667.91;5116182;27;20044;-65
2023/03/22 02:14:00;;;;;;;10.85;5.88;;;;;;;10.89;100.00;100665.75;5099475;28;20043;-65
2023/03/22 02:17:14;;;;;;;12.95;6.18;;;;;;;10.92;100.00;100673.41;5097457;28;20148;-65
2023/03/22 02:20:09;;;;;;;10.98;6.32;;;;;;;10.86;100.00;100660.84;5100892;27;20044;-66
2023/03/22 02:23:21;;;;;;;13.82;5.90;;;;;;;10.83;100.00;100654.03;5100486;28;20093;-65
2023/03/22 02:26:25;;;;;;;11.13;6.32;;;;;;;10.86;100.00;100658.94;5106727;28;20134;-66
2023/03/22 02:29:01;;;;;;;11.57;5.80;;;;;;;10.88;100.00;100654.03;5103535;28;20035;-65
2023/03/22 02:31:50;;;;;;;10.05;6.10;;;;;;;10.90;100.00;100651.03;5113128;28;20419;-66
2023/03/22 02:34:49;;;;;;;8.30;4.97;;;;;;;10.95;100.00;100653.75;5102586;28;20040;-66
2023/03/22 02:37:54;;;;;;;9.05;4.78;;;;;;;10.94;100.00;100649.38;5078373;28;20421;-65
2023/03/22 02:40:50;;;;;;;8.32;5.05;;;;;;;10.96;100.00;100649.94;5096551;28;20368;-65
2023/03/22 02:43:22;;;;;;;10.73;5.25;;;;;;;11.00;100.00;100640.13;5073941;28;20146;-64
2023/03/22 02:46:09;;;;;;;10.57;5.57;;;;;;;10.98;100.00;100645.03;5102302;28;20050;-66
2023/03/22 02:49:01;;;;;;;7.07;4.60;;;;;;;10.99;100.00;100643.09;5116945;28;20051;-65
2023/03/22 02:51:40;;;;;;;8.77;5.00;;;;;;;11.01;100.00;100636.28;5116228;27;20047;-66
2023/03/22 02:54:30;;;;;;;8.02;4.65;;;;;;;10.99;100.00;100633.03;5099143;28;20044;-66
2023/03/22 02:57:08;;;;;;;9.07;4.25;;;;;;;11.03;100.00;100633.28;5115564;28;20406;-66
2023/03/22 02:59:39;;;;;;;8.60;4.75;;;;;;;11.05;100.00;100631.91;5082531;28;20056;-65
2023/03/22 03:02:10;;;;;;;9.18;4.85;;;;;;;11.06;100.00;100625.41;5081803;27;20073;-66
2023/03/22 03:04:43;;;;;;;10.57;4.35;;;;;;;11.03;100.00;100620.47;5115534;28;20056;-65
2023/03/22 03:07:13;;;;;;;6.35;4.13;;;;;;;11.04;100.00;100621.28;5115976;28;20059;-66
2023/03/22 03:09:42;;;;;;;6.50;4.15;;;;;;;11.04;100.00;100616.66;5098795;28;20090;-65
2023/03/22 03:12:18;;;;;;;8.82;5.00;;;;;;;11.01;100.00;100616.38;5083239;28;20056;-66
2023/03/22 03:14:46;;;;;;;7.30;4.18;;;;;;;11.05;100.00;100623.75;5078098;28;20048;-65
2023/03/22 03:17:52;;;;;;;8.30;4.55;;;;;;;11.06;100.00;100608.19;5094739;28;20055;-64
2023/03/22 03:20:37;;;;;;;6.28;3.83;;;;;;;11.09;100.00;100610.38;5078130;28;20075;-65
2023/03/22 03:23:27;;;;;;;7.50;4.40;;;;;;;11.11;100.00;100616.34;5114063;27;20449;-64
2023/03/22 03:26:23;;;;;;;8.48;4.32;;;;;;;11.09;100.00;100607.66;5098531;28;20044;-65
2023/03/22 03:28:56;;;;;;;6.50;3.75;;;;;;;11.07;100.00;100610.66;5111039;28;20476;-65
2023/03/22 03:31:41;;;;;;;6.93;3.47;;;;;;;11.07;100.00;100610.66;5096002;27;20044;-66
2023/03/22 03:34:11;;;;;;;9.07;4.05;;;;;;;11.07;100.00;100610.66;5094498;28;20044;-64
2023/03/22 03:36:45;;;;;;;8.00;4.10;;;;;;;11.11;100.00;100604.63;5095372;28;20514;-66
2023/03/22 03:39:14;;;;;;;8.30;3.45;;;;;;;11.11;100.00;100610.09;5094600;28;20048;-65
2023/03/22 03:41:46;;;;;;;9.45;3.90;;;;;;;11.05;100.00;100601.13;5095448;28;20074;-65
2023/03/22 03:44:15;;;;;;;7.80;3.80;;;;;;;11.07;100.00;100605.19;5094424;28;20105;-66
2023/03/22 03:46:45;;;;;;;8.05;3.90;;;;;;;11.08;100.00;100604.09;5093811;28;20040;-65
2023/03/22 03:49:14;;;;;;;11.80;3.53;;;;;;;11.03;100.00;100612.28;5094712;28;20057;-66
2023/03/22 03:51:50;;;;;;;7.88;3.60;;;;;;;11.03;100.00;100606.03;5077315;28;20059;-66
2023/03/22 03:54:19;;;;;;;7.80;3.53;;;;;;;11.00;100.00;100612.03;5110095;27;20118;-65
2023/03/22 03:56:47;;;;;;;5.05;3.28;;;;;;;10.98;100.00;100615.03;5114279;28;20088;-64
2023/03/22 03:59:16;;;;;;;5.82;3.08;;;;;;;10.97;100.00;100609.88;5113266;28;20044;-66
2023/03/22 04:01:51;;;;;;;7.78;3.78;;;;;;;10.96;100.00;100609.03;5062545;28;20040;-65
2023/03/22 04:04:27;;;;;;;6.22;3.28;;;;;;;11.00;100.00;100614.78;5076933;28;20075;-65
2023/03/22 04:07:03;;;;;;;6.65;3.47;;;;;;;10.95;100.00;100612.88;5085553;28;20059;-64
2023/03/22 04:09:34;;;;;;;9.95;3.78;;;;;;;10.94;100.00;100613.94;5101624;28;20408;-66
2023/03/22 04:12:16;;;;;;;7.78;3.40;;;;;;;10.94;100.00;100605.75;5106126;28;20104;-65
2023/03/22 04:14:58;;;;;;;6.60;3.05;;;;;;;10.95;100.00;100612.88;5117743;28;20047;-64
2023/03/22 04:17:30;;;;;;;7.85;3.63;;;;;;;10.91;100.00;100606.31;5084128;28;20074;-66
2023/03/22 04:20:01;;;;;;;7.63;3.33;;;;;;;10.89;100.00;100603.06;5100245;28;20094;-65
2023/03/22 04:22:33;;;;;;;7.15;3.47;;;;;;;10.86;100.00;100601.69;5099556;28;20070;-65
2023/03/22 04:25:02;;;;;;;5.82;3.15;;;;;;;10.85;100.00;100602.00;5095843;28;20055;-64
2023/03/22 04:27:30;;;;;;;6.00;3.20;;;;;;;10.85;100.00;100594.63;5093014;28;20131;-64
2023/03/22 04:30:10;;;;;;;5.90;3.05;;;;;;;10.82;100.00;100597.06;5076755;28;20093;-65
2023/03/22 04:32:56;;;;;;;6.65;2.95;;;;;;;10.82;100.00;100597.06;5097511;28;20059;-65
2023/03/22 04:35:36;;;;;;;8.18;3.35;;;;;;;10.81;100.00;100581.81;5112866;27;20464;-66
2023/03/22 04:38:06;;;;;;;6.60;3.20;;;;;;;10.80;100.00;100593.78;5113169;28;20073;-65
2023/03/22 04:40:37;;;;;;;9.13;3.63;;;;;;;10.80;100.00;100591.06;5113348;28;20072;-65
2023/03/22 04:43:10;;;;;;;8.75;3.33;;;;;;;10.79;100.00;100589.44;5110483;27;20048;-66
2023/03/22 04:45:48;;;;;;;8.30;3.45;;;;;;;10.77;100.00;100583.44;5094655;28;20120;-65
2023/03/22 04:48:22;;;;;;;6.95;2.97;;;;;;;10.80;100.00;100583.72;5093296;28;20036;-66
2023/03/22 04:50:52;;;;;;;7.72;3.05;;;;;;;10.80;100.00;100583.72;5076713;28;20052;-65
2023/03/22 04:53:26;;;;;;;6.55;3.08;;;;;;;10.78;100.00;100576.94;5095577;28;20139;-66
2023/03/22 04:55:57;;;;;;;5.85;2.75;;;;;;;10.80;100.00;100572.00;5097448;28;20047;-65
2023/03/22 04:58:27;;;;;;;7.57;2.90;;;;;;;10.82;100.00;100572.53;5093136;28;20036;-65
2023/03/22 05:00:55;;;;;;;8.80;3.47;;;;;;;10.76;100.00;100585.38;5080334;28;20054;-65
2023/03/22 05:03:23;;;;;;;7.75;3.30;;;;;;;10.75;100.00;100574.72;5095626;28;20059;-65
2023/03/22 05:05:57;;;;;;;7.05;2.95;;;;;;;10.75;100.00;100572.00;5090677;28;20048;-67
2023/03/22 05:08:31;;;;;;;7.70;3.08;;;;;;;10.74;100.00;100578.56;5076202;28;20070;-67
2023/03/22 05:11:05;;;;;;;5.30;2.88;;;;;;;10.74;100.00;100579.38;5093401;28;20078;-67
2023/03/22 05:13:33;;;;;;;7.05;2.80;;;;;;;10.75;100.00;100577.47;5117106;28;20101;-67
2023/03/22 05:16:00;;;;;;;7.00;2.90;;;;;;;10.78;100.00;100574.19;5104857;28;20052;-66
2023/03/22 05:18:41;;;;;;;7.00;3.10;;;;;;;10.77;100.00;100567.91;5092243;28;20039;-65
2023/03/22 05:21:20;;;;;;;6.22;3.10;;;;;;;10.83;100.00;100568.75;5093660;28;20044;-65
2023/03/22 05:23:53;;;;;;;7.13;2.90;;;;;;;10.87;100.00;100572.53;5076851;28;20044;-65
2023/03/22 05:26:23;;;;;;;7.18;3.00;;;;;;;10.85;100.00;100566.56;5075525;28;20070;-65
2023/03/22 05:28:51;;;;;;;6.88;2.90;;;;;;;10.81;100.00;100570.91;5075981;28;20044;-65
2023/03/22 05:31:27;;;;;;;6.25;2.65;;;;;;;10.78;100.00;100569.56;5060549;28;20428;-66
2023/03/22 05:34:00;;;;;;;6.57;2.97;;;;;;;10.74;100.00;100573.13;5092967;28;20055;-64
2023/03/22 05:36:29;;;;;;;7.88;3.05;;;;;;;10.75;100.00;100566.56;5092367;28;20098;-65
2023/03/22 05:39:21;;;;;;;7.95;2.83;;;;;;;10.81;100.00;100574.44;5083705;28;20176;-65
2023/03/22 05:41:50;;;;;;;6.38;2.65;;;;;;;10.84;100.00;100576.63;5091931;28;20044;-65
2023/03/22 05:44:17;;;;;;;6.15;2.85;;;;;;;10.80;100.00;100570.09;5087860;28;20404;-66
2023/03/22 05:46:56;;;;;;;5.68;2.28;;;;;;;10.78;100.00;100568.75;5088466;28;20122;-65
2023/03/22 05:49:42;;;;;;;6.18;2.65;;;;;;;10.71;100.00;100563.59;5092171;28;20050;-65
2023/03/22 05:52:10;;;;;;;10.93;3.17;;;;;;;10.75;100.00;100561.94;5091794;28;20079;-66
2023/03/22 05:55:04;;;;;;;6.78;2.63;;;;;;;10.75;100.00;100563.84;5094021;28;20040;-67
2023/03/22 05:57:34;;;;;;;8.13;2.60;;;;;;;10.76;100.00;100565.47;5091645;28;20064;-66
2023/03/22 06:00:12;;;;;;;7.68;2.80;;;;;;;10.74;100.00;100562.22;5091897;28;20044;-66
2023/03/22 06:02:47;;;;;;;7.68;2.58;;;;;;;10.72;100.00;100562.47;5091594;28;20048;-65
2023/03/22 06:05:17;;;;;;;9.70;2.72;;;;;;;10.71;100.00;100573.66;5089390;28;20048;-65
2023/03/22 06:07:45;;;;;;;6.68;2.63;;;;;;;10.73;100.00;100566.84;5057936;28;20125;-65
2023/03/22 06:10:17;;;;;;;7.05;3.13;;;;;;;10.78;100.00;100574.19;5075850;28;20483;-65
2023/03/22 06:12:45;;;;;;;6.70;2.33;;;;;;;10.75;100.00;100569.28;5091930;28;20123;-65
2023/03/22 06:15:22;;;;;;;7.15;2.78;;;;;;;10.71;100.00;100565.50;5081302;28;20052;-65
2023/03/22 06:18:01;;;;;;;8.18;3.10;;;;;;;10.70;100.00;100566.56;5106479;28;20480;-64
2023/03/22 06:20:35;;;;;;;7.13;2.83;;;;;;;10.72;100.00;100559.75;5099711;28;20363;-64
2023/03/22 06:23:09;;;;;;;6.22;2.58;;;;;;;10.73;100.00;100560.59;5097730;28;20494;-65
2023/03/22 06:25:39;;;;;;;7.22;2.95;;;;;;;10.74;100.00;100559.50;5119879;28;20458;-65
2023/03/22 06:28:07;;;;;;;11.95;3.78;;;;;;;10.73;100.00;100560.59;5103248;28;20052;-65
2023/03/22 06:30:36;;;;;;;9.90;3.13;;;;;;;10.68;100.00;100560.56;5118670;28;20071;-66
2023/03/22 06:33:24;;;;;;;11.13;4.03;;;;;;;10.61;100.00;100553.53;5093964;28;20101;-65
2023/03/22 06:35:58;;;;;;;9.33;3.47;;;;;;;10.59;100.00;100561.13;4723723;28;10000583;-67
2023/03/22 06:38:32;;;;;;;7.97;3.10;;;;;;;10.59;100.00;100565.78;5084579;28;20301;-67
2023/03/22 06:41:00;;;;;;;8.68;2.63;;;;;;;10.80;100.00;100561.09;5089496;28;20044;-66
2023/03/22 06:43:28;;;;;;;6.85;2.13;;;;;;;10.88;100.00;100571.44;5079541;28;20101;-66
2023/03/22 06:46:07;;;;;;;7.10;2.95;;;;;;;11.16;100.00;100556.38;5111617;28;20053;-67
2023/03/22 06:48:44;;;;;;;9.40;2.90;;;;;;;11.17;100.00;100559.91;5096177;28;20479;-67
2023/03/22 06:51:15;;;;;;;5.72;2.45;;;;;;;11.16;100.00;100563.72;5107806;27;20051;-66
2023/03/22 06:53:45;;;;;;;5.10;2.10;;;;;;;11.14;100.00;100564.03;5098781;27;20055;-66
2023/03/22 06:56:13;;;;;;;7.05;2.47;;;;;;;11.34;100.00;100560.38;5074399;28;20086;-66
2023/03/22 06:58:50;;;;;;;6.60;2.55;;;;;;;11.24;100.00;100549.53;5075040;28;20048;-67
2023/03/22 07:01:18;;;;;;;12.65;2.50;;;;;;;11.22;100.00;100568.06;5091216;28;20040;-67
2023/03/22 07:03:46;;;;;;;6.50;2.40;;;;;;;11.24;100.00;100571.34;5094848;28;20044;-67
2023/03/22 07:06:16;;;;;;;7.97;3.20;;;;;;;11.22;100.00;100568.06;5093778;28;20066;-67
2023/03/22 07:08:48;;;;;;;4.97;2.05;;;;;;;11.35;100.00;100569.38;5090702;28;20060;-66
2023/03/22 07:11:22;;;;;;;8.38;2.97;;;;;;;11.51;100.00;100555.38;5090899;28;20052;-67
2023/03/22 07:13:57;;;;;;;8.75;2.95;;;;;;;11.43;100.00;100553.25;5093273;27;20457;-67
2023/03/22 07:16:27;;;;;;;7.57;3.13;;;;;;;11.39;100.00;100552.19;5090839;28;20056;-68
2023/03/22 07:18:58;;;;;;;6.97;2.05;;;;;;;11.40;100.00;100556.56;5090629;28;20403;-67
2023/03/22 07:21:26;;;;;;;6.00;2.53;;;;;;;11.47;100.00;100558.94;5090641;28;20503;-69
2023/03/22 07:23:57;;;;;;;9.35;3.25;;;;;;;11.41;100.00;100560.91;5099411;27;20116;-68
2023/03/22 07:26:29;;;;;;;5.85;2.33;;;;;;;11.54;100.00;100558.66;5081808;28;20056;-68
2023/03/22 07:28:59;;;;;;;8.90;3.08;;;;;;;11.59;100.00;100564.09;5074508;28;20052;-67
2023/03/22 07:31:30;;;;;;;6.43;2.58;;;;;;;11.54;100.00;100562.19;5090954;28;20052;-67
2023/03/22 07:34:03;;;;;;;6.35;2.60;;;;;;;11.54;100.00;100559.47;5092490;28;20097;-66
2023/03/22 07:36:37;;;;;;;11.13;4.18;;;;;;;11.19;100.00;100568.63;5041776;27;20055;-66
2023/03/22 07:39:08;;;;;;;12.25;4.18;;;;;;;11.05;100.00;100569.22;5100962;27;20369;-67
2023/03/22 07:41:41;;;;;;;12.52;4.07;;;;;;;10.98;100.00;100563.25;5094752;28;20500;-65
2023/03/22 07:44:35;;;;;;;11.15;3.67;;;;;;;10.91;100.00;100561.91;5087651;28;20059;-66
2023/03/22 07:47:17;;;;;;;13.63;3.28;;;;;;;10.94;100.00;100578.50;5095487;28;20051;-66
2023/03/22 07:50:27;;;;;;;11.57;3.95;;;;;;;11.02;100.00;100569.78;5065805;28;20047;-65
2023/03/22 07:53:02;;;;;;;10.55;3.95;;;;;;;10.97;100.00;100579.91;5076838;28;20040;-66
2023/03/22 07:55:30;;;;;;;8.93;3.60;;;;;;;10.99;100.00;100570.34;5094100;28;20052;-66
2023/03/22 07:57:58;;;;;;;12.50;3.90;;;;;;;10.99;100.00;100573.06;5095126;28;20480;-65
2023/03/22 08:00:26;;;;;;;8.80;2.88;;;;;;;11.01;100.00;100576.31;5094105;28;20063;-65
2023/03/22 08:03:14;;;;;;;12.25;3.80;;;;;;;11.08;100.00;100579.56;5094761;28;20101;-66
2023/03/22 08:06:06;;;;;;;11.77;4.60;;;;;;;11.05;100.00;100574.66;5080581;28;20060;-66
2023/03/22 08:08:37;;;;;;;26.13;6.03;;;;;;;11.21;100.00;100567.25;5105953;28;20051;-67
2023/03/22 08:11:06;;;;;;;29.38;6.38;;;;;;;11.50;100.00;100561.13;5101426;28;20052;-67
2023/03/22 08:13:34;;;;;;;28.85;6.45;;;;;;;11.76;100.00;100567.28;5093635;28;20063;-67
2023/03/22 08:16:02;;;;;;;12.95;4.00;;;;;;;11.52;100.00;100578.88;5093847;28;20097;-66
2023/03/22 08:18:31;;;;;;;19.90;5.53;;;;;;;11.55;100.00;100571.22;5092669;27;20499;-66
2023/03/22 08:20:59;;;;;;;13.70;3.83;;;;;;;11.45;100.00;100572.91;5093325;28;20484;-65
2023/03/22 08:23:31;;;;;;;10.57;3.30;;;;;;;11.49;100.00;100575.88;5093524;28;20048;-66
2023/03/22 08:26:38;;;;;;;11.07;3.75;;;;;;;11.43;100.00;100574.28;5085162;28;20059;-66
2023/03/22 08:29:15;;;;;;;11.52;3.63;;;;;;;11.63;100.00;100568.69;5078332;28;20105;-66
2023/03/22 08:31:46;;;;;;;14.13;4.10;;;;;;;11.61;100.00;100581.00;5077198;28;20043;-65
2023/03/22 08:34:14;;;;;;;15.82;4.00;;;;;;;11.58;100.00;100573.38;5093339;28;20055;-65
2023/03/22 08:36:42;;;;;;;10.38;3.55;;;;;;;11.54;100.00;100564.13;5092996;28;20404;-64
2023/03/22 08:39:10;;;;;;;10.77;3.17;;;;;;;11.49;100.00;100571.22;5076646;28;20040;-65
2023/03/22 08:41:46;;;;;;;13.68;3.30;;;;;;;11.71;100.00;100564.56;5077403;28;20047;-65
2023/03/22 08:44:13;;;;;;;12.02;3.58;;;;;;;11.62;99.03;100560.81;5104260;28;20047;-66
2023/03/22 08:46:41;;;;;;;10.65;3.78;;;;;;;11.52;98.92;100562.50;5063394;28;20048;-66
2023/03/22 08:49:09;;;;;;;10.18;3.00;;;;;;;11.50;99.14;100558.41;5113269;28;20050;-65
2023/03/22 08:51:49;;;;;;;11.35;3.50;;;;;;;11.46;97.04;100557.34;5113562;28;20047;-65
2023/03/22 08:54:31;;;;;;;12.43;3.55;;;;;;;11.69;100.00;100547.66;5083888;28;20048;-65
2023/03/22 08:57:03;;;;;;;11.70;3.30;;;;;;;11.70;99.56;100552.03;5106041;28;20381;-66
2023/03/22 08:59:55;;;;;;;14.32;4.10;;;;;;;11.89;100.00;100544.81;5103078;27;20036;-66
2023/03/22 09:02:30;;;;;;;17.67;4.07;;;;;;;11.96;100.00;100551.91;5060767;28;20098;-66
2023/03/22 09:04:59;;;;;;;13.02;3.67;;;;;;;11.90;98.88;100557.38;5110663;28;20050;-66
2023/03/22 09:07:27;;;;;;;13.80;3.78;;;;;;;11.96;98.97;100560.91;5110780;28;20515;-66
2023/03/22 09:10:04;;;;;;;11.55;3.65;;;;;;;11.84;98.19;100558.47;5111755;28;20050;-67
2023/03/22 09:12:33;;;;;;;13.30;3.80;;;;;;;11.90;100.00;100551.91;5089269;28;20051;-67
2023/03/22 09:15:01;;;;;;;14.23;3.63;;;;;;;12.00;100.00;100544.75;5112928;28;20047;-65
2023/03/22 09:17:30;;;;;;;9.48;3.13;;;;;;;12.10;100.00;100541.97;5113261;28;20122;-66
2023/03/22 09:19:58;;;;;;;12.77;3.50;;;;;;;12.03;99.63;100538.75;5113539;28;20044;-68
2023/03/22 09:22:41;;;;;;;9.18;3.08;;;;;;;12.21;100.00;100540.75;5098265;28;20044;-67
2023/03/22 09:25:10;;;;;;;10.52;3.47;;;;;;;12.20;100.00;100539.13;5112942;27;20381;-67
2023/03/22 09:27:42;;;;;;;10.15;3.22;;;;;;;12.00;95.42;100547.47;5097244;28;20101;-66
2023/03/22 09:30:10;;;;;;;14.52;3.53;;;;;;;12.02;98.36;100524.25;5112407;28;20047;-67
2023/03/22 09:32:38;;;;;;;11.18;3.33;;;;;;;12.04;99.97;100534.91;5109573;28;20052;-68
2023/03/22 09:35:11;;;;;;;9.32;2.88;;;;;;;12.09;100.00;100537.59;5113155;28;20122;-67
2023/03/22 09:37:52;;;;;;;10.10;2.85;;;;;;;12.16;100.00;100529.88;5113748;28;20048;-65
2023/03/22 09:40:21;;;;;;;10.10;3.15;;;;;;;12.28;100.00;100529.50;5084338;28;20123;-67
2023/03/22 09:42:51;;;;;;;9.68;2.80;;;;;;;12.22;100.00;100534.22;5093871;28;20452;-66
2023/03/22 09:45:36;;;;;;;7.82;2.45;;;;;;;12.32;100.00;100525.91;5085791;28;20040;-66
2023/03/22 09:48:17;;;;;;;10.52;3.05;;;;;;;12.35;100.00;100530.81;5098839;28;20048;-66
2023/03/22 09:50:52;;;;;;;7.18;2.72;;;;;;;12.29;100.00;100536.59;5115823;28;20071;-65
2023/03/22 09:53:22;;;;;;;10.35;3.00;;;;;;;12.24;99.37;100534.75;5080264;28;20138;-66
2023/03/22 09:56:01;;;;;;;12.63;3.28;;;;;;;12.09;96.36;100532.13;5098485;28;20039;-65
2023/03/22 09:58:56;;;;;;;6.70;2.80;;;;;;;12.24;100.00;100521.09;5104872;28;20046;-67
2023/03/22 10:01:42;;;;;;;11.93;2.85;;;;;;;12.07;94.98;100528.84;5104327;28;20544;-66
2023/03/22 10:04:32;;;;;;;11.80;2.95;;;;;;;12.10;98.68;100539.22;5114559;28;20035;-66
2023/03/22 10:07:49;;;;;;;10.02;2.90;;;;;;;12.01;95.81;100525.34;5114059;28;20405;-65
2023/03/22 10:10:20;;;;;;;10.68;3.05;;;;;;;11.96;96.92;100528.13;5096798;28;20056;-66
2023/03/22 10:13:06;;;;;;;10.05;3.35;;;;;;;12.22;100.00;100531.47;5102506;28;20045;-66
2023/03/22 10:15:37;;;;;;;11.10;3.25;;;;;;;12.17;93.76;100534.25;5077719;28;20044;-65
2023/03/22 10:18:15;;;;;;;6.35;2.28;;;;;;;12.13;100.00;100525.00;5100716;28;20054;-65
2023/03/22 10:20:56;;;;;;;10.98;3.28;;;;;;;12.19;97.61;100536.69;5136903;27;20455;-66
2023/03/22 10:23:45;;;;;;;9.32;3.15;;;;;;;12.13;95.97;100536.72;5123142;28;20052;-65
2023/03/22 10:26:35;;;;;;;10.40;3.10;;;;;;;11.96;92.04;100528.13;5116815;27;20044;-66
2023/03/22 10:29:23;;;;;;;10.65;2.95;;;;;;;11.90;92.71;100524.59;5111749;27;20040;-66
2023/03/22 10:31:51;;;;;;;11.35;2.95;;;;;;;11.78;91.57;100537.75;5118317;28;20087;-66
2023/03/22 10:34:29;;;;;;;13.98;3.22;;;;;;;11.70;93.97;100543.84;5117557;27;20051;-66
2023/03/22 10:37:00;;;;;;;10.00;2.80;;;;;;;11.70;94.86;100552.81;5112024;27;20047;-66
2023/03/22 10:39:40;;;;;;;11.05;3.20;;;;;;;11.79;96.65;100553.06;5119219;27;20036;-67
2023/03/22 10:42:13;;;;;;;11.00;3.20;;;;;;;11.90;100.00;100545.63;5116222;28;20487;-67
2023/03/22 10:44:50;;;;;;;12.65;3.65;;;;;;;11.69;100.00;100550.41;5116289;28;20126;-66
2023/03/22 10:47:22;;;;;;;10.52;3.00;;;;;;;11.66;100.00;100550.94;5109719;27;20043;-67
2023/03/22 10:49:53;;;;;;;11.73;3.15;;;;;;;11.59;100.00;100558.63;5136513;27;20066;-67
2023/03/22 10:52:49;;;;;;;10.93;3.22;;;;;;;11.54;100.00;100547.75;5137686;27;20471;-65
2023/03/22 10:55:17;;;;;;;8.13;3.10;;;;;;;11.72;100.00;100549.81;5135330;27;20509;-67
2023/03/22 10:58:11;;;;;;;13.95;3.28;;;;;;;11.84;100.00;100554.94;5122818;27;20049;-66
2023/03/22 11:00:47;;;;;;;8.05;2.83;;;;;;;11.86;100.00;100555.47;5108573;28;20048;-67
2023/03/22 11:03:39;;;;;;;7.60;2.70;;;;;;;11.81;100.00;100559.06;5096766;28;20052;-66
2023/03/22 11:06:18;;;;;;;10.05;2.92;;;;;;;11.74;100.00;100553.09;5096693;28;20067;-65
2023/03/22 11:08:58;;;;;;;12.70;2.92;;;;;;;11.86;100.00;100561.75;5098124;27;20051;-67
2023/03/22 11:11:44;;;;;;;9.40;3.20;;;;;;;11.67;100.00;100558.06;5098092;27;20040;-68
2023/03/22 11:14:24;;;;;;;9.32;2.90;;;;;;;11.60;100.00;100552.91;5099147;28;20039;-65
2023/03/22 11:17:06;;;;;;;13.27;3.45;;;;;;;11.54;100.00;100548.53;5114226;27;20070;-66
2023/03/22 11:19:36;;;;;;;9.90;3.03;;;;;;;11.50;100.00;100545.59;5105775;27;20446;-66
2023/03/22 11:22:07;;;;;;;11.40;3.40;;;;;;;11.48;100.00;100550.50;5113976;28;20052;-66
2023/03/22 11:24:34;;;;;;;13.88;3.35;;;;;;;11.50;100.00;100548.31;5094679;28;20055;-67
2023/03/22 11:27:21;;;;;;;10.93;3.53;;;;;;;11.47;100.00;100548.88;5095489;28;20555;-66
2023/03/22 11:29:51;;;;;;;10.90;3.35;;;;;;;11.48;100.00;100552.41;5096319;27;20051;-66
2023/03/22 11:33:06;;;;;;;16.20;4.55;;;;;;;11.50;100.00;100547.50;5115742;28;20086;-67
2023/03/22 11:35:35;;;;;;;;;;;;;;;11.54;100.00;100543.09;5083381;28;20062;-67
2023/03/22 11:38:04;;;;;;;12.63;4.28;;;;;;;11.58;100.00;100548.81;5113095;27;19962;-66
2023/03/22 11:40:34;;;;;;;16.30;4.45;;;;;;;11.79;100.00;100546.78;5116726;28;20127;-66
2023/03/22 11:43:23;;;;;;;14.55;5.55;;;;;;;11.91;100.00;100542.63;5103795;27;20076;-66
2023/03/22 11:45:54;;;;;;;16.20;6.55;;;;;;;12.20;100.00;100535.59;5095527;28;20044;-67
2023/03/22 11:48:25;;;;;;;13.75;4.70;;;;;;;12.14;100.00;100540.28;5086430;28;20047;-65
2023/03/22 11:50:58;;;;;;;17.25;5.80;;;;;;;12.05;100.00;100536.50;5067575;28;20097;-66